Time;durP1;ratioP1;P1;durP2;ratioP2;P2;SDS_P1;SDS_P2;PMS_P1;PMS_P2;Temp;Humidity;BMP_temperature;BMP_pressure;BME280_temperature;BME280_humidity;BME280_pressure;Samples;Min_cycle;Max_cycle;Signal;HPM_P1;HPM_P2
2022/04/24 00:01:42;;;;;;;10.10;7.72;;;9.90;99.90;;;;;;5053171;28;20041;-67
2022/04/24 00:04:08;;;;;;;12.35;8.18;;;9.80;99.90;;;;;;5054672;28;20044;-68
2022/04/24 00:06:34;;;;;;;9.05;7.50;;;9.80;99.90;;;;;;5045353;28;20032;-66
2022/04/24 00:09:01;;;;;;;11.60;8.07;;;9.70;99.90;;;;;;5063106;28;20044;-67
2022/04/24 00:11:26;;;;;;;11.93;8.88;;;9.70;99.90;;;;;;5060006;28;20037;-67
2022/04/24 00:13:52;;;;;;;11.50;7.68;;;9.70;99.90;;;;;;5066126;28;20385;-66
2022/04/24 00:16:18;;;;;;;9.90;7.10;;;9.70;99.90;;;;;;5073822;28;20115;-67
2022/04/24 00:18:44;;;;;;;10.15;7.90;;;9.70;99.90;;;;;;5039148;28;20110;-67
2022/04/24 00:21:10;;;;;;;9.40;7.15;;;9.70;99.90;;;;;;5061676;28;20447;-68
2022/04/24 00:23:35;;;;;;;8.95;7.00;;;9.70;99.90;;;;;;5043940;28;20076;-67
2022/04/24 00:26:01;;;;;;;10.57;7.07;;;9.60;99.90;;;;;;5052796;28;20059;-68
2022/04/24 00:28:27;;;;;;;15.57;7.72;;;9.50;99.90;;;;;;5069584;28;20048;-67
2022/04/24 00:30:53;;;;;;;8.18;7.25;;;9.60;99.90;;;;;;5064969;28;20107;-68
2022/04/24 00:33:19;;;;;;;8.63;7.38;;;9.50;99.90;;;;;;5058817;28;20119;-66
2022/04/24 00:35:44;;;;;;;11.43;7.53;;;9.50;99.90;;;;;;5072718;28;20565;-66
2022/04/24 00:38:10;;;;;;;8.48;7.32;;;9.50;99.90;;;;;;5063212;28;20037;-66
2022/04/24 00:40:36;;;;;;;9.35;7.57;;;9.50;99.90;;;;;;5062515;28;20036;-68
2022/04/24 00:43:03;;;;;;;10.93;7.55;;;9.40;99.90;;;;;;5054842;28;20120;-68
2022/04/24 00:45:30;;;;;;;10.30;7.57;;;9.40;99.90;;;;;;5055912;28;20048;-67
2022/04/24 00:47:56;;;;;;;9.43;7.53;;;9.40;99.90;;;;;;5065111;28;20083;-65
2022/04/24 00:50:23;;;;;;;10.77;7.88;;;9.30;99.90;;;;;;5058217;28;20116;-67
2022/04/24 00:52:49;;;;;;;10.10;7.53;;;9.30;99.90;;;;;;5048342;28;20056;-67
2022/04/24 00:55:21;;;;;;;10.95;7.03;;;9.30;99.90;;;;;;5054630;28;20041;-68
2022/04/24 00:57:47;;;;;;;10.65;8.70;;;9.30;99.90;;;;;;5056148;28;20063;-67
2022/04/24 01:00:13;;;;;;;11.25;7.80;;;9.20;99.90;;;;;;5067218;28;20455;-67
2022/04/24 01:02:39;;;;;;;8.32;7.38;;;9.20;99.90;;;;;;5066152;28;20044;-66
2022/04/24 01:05:07;;;;;;;8.07;6.75;;;9.20;99.90;;;;;;5057185;28;20120;-67
2022/04/24 01:07:32;;;;;;;9.77;8.02;;;9.10;99.90;;;;;;5036748;28;20047;-68
2022/04/24 01:10:00;;;;;;;8.98;7.07;;;9.10;99.90;;;;;;5068393;28;20127;-68
2022/04/24 01:12:26;;;;;;;11.10;7.43;;;9.10;99.90;;;;;;5062178;28;20041;-67
2022/04/24 01:14:51;;;;;;;8.27;7.32;;;9.00;99.90;;;;;;5063385;28;20123;-68
2022/04/24 01:17:18;;;;;;;11.48;7.45;;;9.00;99.90;;;;;;5073163;28;20182;-66
2022/04/24 01:19:44;;;;;;;9.93;7.05;;;9.00;99.90;;;;;;5058092;28;20044;-68
2022/04/24 01:22:10;;;;;;;10.63;7.85;;;9.00;99.90;;;;;;5053901;28;20175;-68
2022/04/24 01:24:36;;;;;;;12.25;7.85;;;8.90;99.90;;;;;;5070682;28;20097;-67
2022/04/24 01:27:02;;;;;;;9.30;8.30;;;8.80;99.90;;;;;;5051558;28;20628;-68
2022/04/24 01:29:28;;;;;;;9.52;7.95;;;8.70;99.90;;;;;;5041493;28;20439;-68
2022/04/24 01:31:54;;;;;;;12.13;8.07;;;8.60;99.90;;;;;;5063597;28;20040;-68
2022/04/24 01:34:21;;;;;;;14.70;8.73;;;8.50;99.90;;;;;;5054824;28;20039;-68
2022/04/24 01:36:47;;;;;;;12.10;8.40;;;8.30;99.90;;;;;;5072566;28;20500;-68
2022/04/24 01:39:15;;;;;;;10.55;8.38;;;8.20;99.90;;;;;;5064004;28;20091;-68
2022/04/24 01:41:41;;;;;;;10.20;8.48;;;8.10;99.90;;;;;;5063533;28;20052;-68
2022/04/24 01:44:07;;;;;;;11.07;9.10;;;8.00;99.90;;;;;;5056983;28;20037;-68
2022/04/24 01:46:33;;;;;;;11.27;8.73;;;7.90;99.90;;;;;;5071210;28;20050;-68
2022/04/24 01:48:59;;;;;;;13.80;9.27;;;7.80;99.90;;;;;;5044107;28;20041;-68
2022/04/24 01:51:25;;;;;;;11.13;8.27;;;7.70;99.90;;;;;;5053222;28;20025;-68
2022/04/24 01:53:51;;;;;;;12.13;8.82;;;7.60;99.90;;;;;;5068262;28;20095;-67
2022/04/24 01:56:17;;;;;;;11.20;8.60;;;7.60;99.90;;;;;;5052237;28;20508;-68
2022/04/24 01:58:43;;;;;;;10.68;8.20;;;7.50;99.90;;;;;;5056482;28;20048;-68
2022/04/24 02:01:09;;;;;;;12.10;8.98;;;7.40;99.90;;;;;;5066173;28;20120;-68
2022/04/24 02:03:35;;;;;;;11.90;8.55;;;7.30;99.90;;;;;;5059710;28;20037;-68
2022/04/24 02:06:03;;;;;;;12.85;9.90;;;7.20;99.90;;;;;;5060430;28;20040;-68
2022/04/24 02:08:30;;;;;;;11.13;9.30;;;7.20;99.90;;;;;;5054350;28;20047;-68
2022/04/24 02:10:56;;;;;;;12.88;9.15;;;7.10;99.90;;;;;;5053584;28;20044;-67
2022/04/24 02:13:22;;;;;;;10.88;8.65;;;7.00;99.90;;;;;;5061545;28;20045;-68
2022/04/24 02:15:49;;;;;;;11.55;9.10;;;7.00;99.90;;;;;;5060487;28;20046;-67
2022/04/24 02:18:15;;;;;;;12.50;9.52;;;7.00;99.90;;;;;;5070674;28;20044;-67
2022/04/24 02:20:41;;;;;;;11.05;9.02;;;6.90;99.90;;;;;;5040627;28;20207;-68
2022/04/24 02:23:08;;;;;;;13.75;9.70;;;6.90;99.90;;;;;;5053762;28;20033;-67
2022/04/24 02:25:34;;;;;;;13.65;9.57;;;6.80;99.90;;;;;;5066626;28;20611;-68
2022/04/24 02:28:00;;;;;;;11.60;9.13;;;6.80;99.90;;;;;;5052169;28;20501;-68
2022/04/24 02:30:30;;;;;;;11.40;9.38;;;6.70;99.90;;;;;;5053830;28;20115;-67
2022/04/24 02:32:58;;;;;;;12.07;10.20;;;6.60;99.90;;;;;;5066298;28;20052;-68
2022/04/24 02:35:24;;;;;;;12.63;10.55;;;6.60;99.90;;;;;;5059564;28;20095;-67
2022/04/24 02:37:50;;;;;;;12.38;10.07;;;6.50;99.90;;;;;;5062397;28;20123;-67
2022/04/24 02:40:21;;;;;;;11.80;9.88;;;6.40;99.90;;;;;;5070570;28;20111;-68
2022/04/24 02:42:48;;;;;;;13.48;10.50;;;6.40;99.90;;;;;;5054412;28;20450;-68
2022/04/24 02:45:14;;;;;;;12.30;10.02;;;6.30;99.90;;;;;;5060779;28;20037;-67
2022/04/24 02:47:40;;;;;;;13.52;10.95;;;6.30;99.90;;;;;;5063697;28;20098;-67
2022/04/24 02:50:07;;;;;;;16.20;10.98;;;6.30;99.90;;;;;;5051580;28;20390;-68
2022/04/24 02:52:33;;;;;;;14.50;10.57;;;6.20;99.90;;;;;;5061783;28;20038;-67
2022/04/24 02:54:58;;;;;;;13.00;10.55;;;6.20;99.90;;;;;;5059094;28;20389;-68
2022/04/24 02:57:24;;;;;;;12.77;10.10;;;6.20;99.90;;;;;;5067417;28;20098;-67
2022/04/24 02:59:50;;;;;;;13.85;11.32;;;6.10;99.90;;;;;;5052148;28;20036;-67
2022/04/24 03:02:17;;;;;;;13.32;10.38;;;6.10;99.90;;;;;;5060201;28;20282;-67
2022/04/24 03:04:45;;;;;;;12.43;10.50;;;6.10;99.90;;;;;;5066058;28;20369;-67
2022/04/24 03:07:11;;;;;;;15.05;10.68;;;6.00;99.90;;;;;;5061556;28;20044;-67
2022/04/24 03:09:38;;;;;;;16.35;11.75;;;6.00;99.90;;;;;;5056656;28;20041;-67
2022/04/24 03:12:05;;;;;;;14.15;11.27;;;6.00;99.90;;;;;;5051585;28;20478;-68
2022/04/24 03:14:31;;;;;;;13.82;10.45;;;5.90;99.90;;;;;;5067083;28;20048;-67
2022/04/24 03:16:57;;;;;;;17.05;10.57;;;5.90;99.90;;;;;;5061028;28;20047;-67
2022/04/24 03:19:23;;;;;;;13.95;11.15;;;5.90;99.90;;;;;;5056748;28;20036;-67
2022/04/24 03:21:48;;;;;;;14.63;10.88;;;5.90;99.90;;;;;;5071461;28;20466;-67
2022/04/24 03:24:14;;;;;;;14.05;11.15;;;5.90;99.90;;;;;;5063107;28;20036;-67
2022/04/24 03:26:40;;;;;;;15.13;10.88;;;5.90;99.90;;;;;;5058189;28;20057;-67
2022/04/24 03:29:06;;;;;;;15.07;11.40;;;5.80;99.90;;;;;;5071819;28;20119;-67
2022/04/24 03:31:32;;;;;;;16.65;10.85;;;5.80;99.90;;;;;;5037512;28;20394;-67
2022/04/24 03:33:58;;;;;;;14.60;11.07;;;5.80;99.90;;;;;;5042135;28;20524;-67
2022/04/24 03:36:26;;;;;;;14.82;11.23;;;5.80;99.90;;;;;;5065338;28;20389;-67
2022/04/24 03:38:51;;;;;;;14.13;10.93;;;5.80;99.90;;;;;;5053947;28;20040;-68
2022/04/24 03:41:17;;;;;;;14.05;10.35;;;5.80;99.90;;;;;;5054297;28;20063;-68
2022/04/24 03:43:43;;;;;;;15.63;11.55;;;5.80;99.90;;;;;;5058189;28;20117;-67
2022/04/24 03:46:10;;;;;;;14.63;11.50;;;5.70;99.90;;;;;;5063510;28;20408;-67
2022/04/24 03:48:35;;;;;;;12.10;10.73;;;5.70;99.90;;;;;;5070961;28;20040;-68
2022/04/24 03:51:01;;;;;;;16.17;11.80;;;5.70;99.90;;;;;;5052623;28;20049;-68
2022/04/24 03:53:28;;;;;;;14.90;10.77;;;5.70;99.90;;;;;;5057561;28;20094;-68
2022/04/24 03:55:53;;;;;;;14.75;11.40;;;5.80;99.90;;;;;;5069489;28;20048;-68
2022/04/24 03:58:19;;;;;;;12.63;10.35;;;5.80;99.90;;;;;;5064386;28;20040;-67
2022/04/24 04:00:45;;;;;;;12.88;10.10;;;5.80;99.90;;;;;;5060217;28;20036;-67
2022/04/24 04:03:11;;;;;;;14.48;10.77;;;5.90;99.90;;;;;;5053674;28;20512;-67
2022/04/24 04:05:37;;;;;;;13.68;10.90;;;5.90;99.90;;;;;;5066810;28;20036;-68
2022/04/24 04:08:04;;;;;;;15.55;11.35;;;5.90;99.90;;;;;;5064553;28;20389;-68
2022/04/24 04:10:30;;;;;;;14.30;11.13;;;5.90;99.90;;;;;;5061592;28;20503;-68
2022/04/24 04:12:56;;;;;;;14.10;10.63;;;5.90;99.90;;;;;;5054406;28;20128;-68
2022/04/24 04:15:22;;;;;;;12.38;10.02;;;5.90;99.90;;;;;;5064021;28;20124;-68
2022/04/24 04:17:48;;;;;;;14.50;10.93;;;5.90;99.90;;;;;;5061678;28;20045;-68
2022/04/24 04:20:14;;;;;;;13.30;10.90;;;5.90;99.90;;;;;;5066572;28;20465;-68
2022/04/24 04:22:51;;;;;;;12.38;10.20;;;5.90;99.90;;;;;;5070712;28;20064;-68
2022/04/24 04:25:21;;;;;;;13.05;10.70;;;6.00;99.90;;;;;;5053292;28;20040;-68
2022/04/24 04:27:47;;;;;;;14.35;10.77;;;6.00;99.90;;;;;;5063025;28;20120;-67
2022/04/24 04:30:14;;;;;;;13.77;10.20;;;6.00;99.90;;;;;;5060528;28;20051;-67
2022/04/24 04:32:40;;;;;;;15.75;10.77;;;6.10;99.90;;;;;;5071502;28;20043;-67
2022/04/24 04:35:09;;;;;;;13.32;9.88;;;6.10;99.90;;;;;;5061856;28;20179;-68
2022/04/24 04:37:39;;;;;;;13.77;9.20;;;6.10;99.90;;;;;;5060516;28;20124;-67
2022/04/24 04:40:06;;;;;;;14.73;10.52;;;6.20;99.90;;;;;;5069438;28;20029;-68
2022/04/24 04:42:33;;;;;;;13.60;9.95;;;6.20;99.90;;;;;;5052796;28;20037;-67
2022/04/24 04:45:00;;;;;;;12.10;9.88;;;6.30;99.90;;;;;;5063889;28;20043;-67
2022/04/24 04:47:29;;;;;;;12.57;9.88;;;6.30;99.90;;;;;;5061153;28;20040;-68
2022/04/24 04:49:55;;;;;;;13.57;9.35;;;6.40;99.90;;;;;;5055324;28;20208;-68
2022/04/24 04:52:22;;;;;;;12.77;9.80;;;6.40;99.90;;;;;;5070250;28;20052;-67
2022/04/24 04:54:49;;;;;;;12.18;9.60;;;6.50;99.90;;;;;;5066071;28;20037;-68
2022/04/24 04:57:16;;;;;;;12.85;8.27;;;6.50;99.90;;;;;;5058542;28;20103;-67
2022/04/24 04:59:42;;;;;;;12.65;9.73;;;6.60;99.90;;;;;;5069966;28;20082;-67
2022/04/24 05:02:08;;;;;;;11.27;9.00;;;6.60;99.90;;;;;;5052552;28;20036;-67
2022/04/24 05:04:34;;;;;;;12.27;9.75;;;6.70;99.90;;;;;;5042807;28;20378;-67
2022/04/24 05:06:59;;;;;;;11.57;9.13;;;6.70;99.90;;;;;;5050618;28;20050;-67
2022/04/24 05:09:25;;;;;;;19.60;10.88;;;6.70;99.90;;;;;;5064279;28;20044;-67
2022/04/24 05:11:51;;;;;;;11.23;8.82;;;6.80;99.90;;;;;;5057642;28;20552;-68
2022/04/24 05:14:17;;;;;;;12.77;10.02;;;6.80;99.90;;;;;;5052412;28;20049;-66
2022/04/24 05:16:43;;;;;;;12.38;9.25;;;6.80;99.90;;;;;;5070321;28;20050;-67
2022/04/24 05:19:09;;;;;;;13.68;9.45;;;6.90;99.90;;;;;;5060163;28;20123;-67
2022/04/24 05:21:35;;;;;;;12.43;9.73;;;6.90;99.90;;;;;;5064396;28;20048;-67
2022/04/24 05:24:01;;;;;;;10.68;8.48;;;7.00;99.90;;;;;;5052136;28;20047;-68
2022/04/24 05:26:27;;;;;;;12.93;9.07;;;6.90;99.90;;;;;;5061813;28;20413;-68
2022/04/24 05:28:53;;;;;;;12.45;9.05;;;7.00;99.90;;;;;;5064524;28;20052;-67
2022/04/24 05:31:19;;;;;;;13.32;9.10;;;7.10;99.90;;;;;;5060453;28;20292;-67
2022/04/24 05:33:45;;;;;;;11.05;8.00;;;7.10;99.90;;;;;;5066378;28;20493;-68
2022/04/24 05:36:12;;;;;;;11.90;8.60;;;7.20;99.90;;;;;;5054977;28;20056;-67
2022/04/24 05:38:38;;;;;;;9.80;8.38;;;7.20;99.90;;;;;;5053576;28;20040;-67
2022/04/24 05:41:04;;;;;;;11.30;8.93;;;7.30;99.90;;;;;;5061987;28;20040;-68
2022/04/24 05:43:30;;;;;;;11.75;9.02;;;7.40;99.90;;;;;;5062471;28;20120;-67
2022/04/24 05:45:56;;;;;;;11.60;9.25;;;7.40;99.90;;;;;;5052951;28;20041;-68
2022/04/24 05:48:22;;;;;;;12.18;8.18;;;7.50;99.90;;;;;;5064005;28;20048;-68
2022/04/24 05:50:48;;;;;;;13.60;8.60;;;7.60;99.90;;;;;;5063439;28;20422;-68
2022/04/24 05:53:14;;;;;;;13.55;9.07;;;7.70;99.90;;;;;;5038855;28;20041;-68
2022/04/24 05:55:40;;;;;;;11.52;8.27;;;7.80;99.90;;;;;;5072393;28;20037;-68
2022/04/24 05:58:06;;;;;;;13.07;8.77;;;7.90;99.90;;;;;;5059772;28;20048;-67
2022/04/24 06:00:32;;;;;;;12.45;8.77;;;8.10;99.90;;;;;;5061485;28;20396;-68
2022/04/24 06:02:59;;;;;;;12.15;7.70;;;8.20;99.90;;;;;;5054027;28;20123;-68
2022/04/24 06:05:25;;;;;;;9.15;7.95;;;8.30;99.90;;;;;;5071272;28;20397;-68
2022/04/24 06:07:51;;;;;;;10.13;7.45;;;8.40;99.90;;;;;;5064301;28;20045;-68
2022/04/24 06:10:17;;;;;;;12.30;8.60;;;8.50;99.90;;;;;;5057009;28;20055;-68
2022/04/24 06:12:56;;;;;;;9.70;7.22;;;8.60;99.90;;;;;;5068836;28;20112;-70
2022/04/24 06:15:24;;;;;;;11.73;7.90;;;8.70;99.90;;;;;;5050888;28;20048;-70
2022/04/24 06:17:59;;;;;;;9.18;7.40;;;8.80;99.90;;;;;;5061537;28;20076;-70
2022/04/24 06:20:28;;;;;;;11.48;7.50;;;8.90;99.90;;;;;;5058441;28;20040;-68
2022/04/24 06:22:56;;;;;;;9.63;7.70;;;9.00;99.90;;;;;;5062212;28;20041;-70
2022/04/24 06:25:23;;;;;;;10.10;7.10;;;9.10;99.90;;;;;;5051918;28;20455;-70
2022/04/24 06:27:50;;;;;;;8.50;6.63;;;9.30;99.90;;;;;;5062528;28;20079;-69
2022/04/24 06:30:18;;;;;;;8.98;6.97;;;9.60;99.90;;;;;;5057878;28;20135;-68
2022/04/24 06:32:45;;;;;;;9.95;6.80;;;10.00;99.90;;;;;;5065983;28;20041;-69
2022/04/24 06:35:15;;;;;;;8.75;6.82;;;10.40;99.90;;;;;;5050425;28;20048;-67
2022/04/24 06:37:47;;;;;;;7.03;6.20;;;10.70;99.90;;;;;;5061330;28;20090;-67
2022/04/24 06:40:16;;;;;;;9.73;6.53;;;11.10;99.90;;;;;;5062922;28;20041;-66
2022/04/24 06:42:54;;;;;;;8.95;6.50;;;11.40;99.90;;;;;;5053695;28;20120;-65
2022/04/24 06:45:40;;;;;;;7.95;6.20;;;11.50;99.90;;;;;;5070500;28;20041;-65
2022/04/24 06:48:14;;;;;;;9.40;6.32;;;11.70;99.90;;;;;;5059967;28;20061;-67
2022/04/24 06:50:47;;;;;;;8.48;6.93;;;11.90;99.90;;;;;;5063275;28;20051;-65
2022/04/24 06:53:18;;;;;;;10.27;6.55;;;12.00;99.90;;;;;;5063190;28;20152;-66
2022/04/24 06:55:45;;;;;;;8.00;6.93;;;12.20;99.90;;;;;;5066569;28;20044;-68
2022/04/24 06:58:13;;;;;;;9.40;6.60;;;12.40;99.90;;;;;;5070130;28;20115;-68
2022/04/24 07:00:42;;;;;;;9.15;7.18;;;12.50;99.90;;;;;;5057465;28;20040;-66
2022/04/24 07:03:22;;;;;;;8.47;7.13;;;12.70;99.90;;;;;;5067667;28;20067;-67
2022/04/24 07:05:49;;;;;;;;;;;12.90;99.90;;;;;;5033910;28;20041;-65
2022/04/24 07:08:15;;;;;;;11.77;6.70;;;13.00;99.90;;;;;;5033371;28;20079;-67
2022/04/24 07:10:42;;;;;;;8.88;6.78;;;13.10;99.90;;;;;;5059877;28;20416;-68
2022/04/24 07:13:08;;;;;;;9.30;7.07;;;13.10;99.90;;;;;;5053930;28;20127;-67
2022/04/24 07:15:36;;;;;;;8.20;6.40;;;13.20;99.90;;;;;;5071605;28;20517;-66
2022/04/24 07:18:03;;;;;;;6.93;5.32;;;13.10;99.90;;;;;;5062111;28;20403;-66
2022/04/24 07:20:29;;;;;;;7.47;6.22;;;13.10;99.90;;;;;;5054545;28;20333;-67
2022/04/24 07:22:58;;;;;;;11.30;6.78;;;13.20;99.90;;;;;;5064265;28;20090;-67
2022/04/24 07:25:25;;;;;;;7.55;6.40;;;13.20;99.90;;;;;;5033211;28;20057;-66
2022/04/24 07:27:52;;;;;;;6.97;4.95;;;13.40;99.90;;;;;;5059656;28;20066;-66
2022/04/24 07:30:19;;;;;;;9.93;6.78;;;13.40;99.90;;;;;;5062048;28;20036;-65
2022/04/24 07:32:53;;;;;;;9.02;7.10;;;13.40;99.90;;;;;;5067387;28;20052;-65
2022/04/24 07:35:25;;;;;;;10.70;7.72;;;13.40;99.90;;;;;;5049829;28;20045;-68
2022/04/24 07:37:52;;;;;;;8.48;6.68;;;13.60;99.90;;;;;;5055262;28;20044;-67
2022/04/24 07:40:20;;;;;;;8.13;6.72;;;13.70;99.90;;;;;;5062340;28;20067;-67
2022/04/24 07:42:57;;;;;;;10.88;6.70;;;13.80;99.90;;;;;;5055708;28;20036;-68
2022/04/24 07:45:33;;;;;;;8.02;6.35;;;13.90;99.90;;;;;;5049925;28;20043;-66
2022/04/24 07:48:00;;;;;;;7.53;6.20;;;14.10;99.90;;;;;;5038240;28;20501;-67
2022/04/24 07:50:30;;;;;;;9.30;5.60;;;14.20;99.90;;;;;;5057150;28;20045;-66
2022/04/24 07:52:57;;;;;;;9.50;5.72;;;14.30;99.90;;;;;;5062046;28;20080;-67
2022/04/24 07:55:24;;;;;;;7.50;5.10;;;14.50;99.90;;;;;;5049829;28;20045;-65
2022/04/24 07:57:53;;;;;;;7.07;4.65;;;14.60;99.90;;;;;;5061441;28;20033;-67
2022/04/24 08:00:21;;;;;;;10.93;5.05;;;14.80;99.90;;;;;;5062646;28;20708;-68
2022/04/24 08:03:02;;;;;;;7.97;5.10;;;15.00;99.90;;;;;;5055879;28;20036;-68
2022/04/24 08:05:40;;;;;;;6.05;4.75;;;15.20;99.90;;;;;;5070750;28;20041;-67
2022/04/24 08:08:09;;;;;;;7.00;4.63;;;15.40;98.80;;;;;;5060071;28;20144;-67
2022/04/24 08:10:37;;;;;;;7.60;4.20;;;15.70;99.60;;;;;;5064903;28;20120;-67
2022/04/24 08:13:05;;;;;;;5.93;3.80;;;15.80;99.20;;;;;;5060319;28;20036;-68
2022/04/24 08:15:32;;;;;;;7.75;4.38;;;16.00;98.20;;;;;;5071138;28;20068;-67
2022/04/24 08:17:59;;;;;;;9.57;4.35;;;16.20;97.80;;;;;;5070908;28;20040;-68
2022/04/24 08:20:25;;;;;;;5.47;3.83;;;16.40;97.40;;;;;;5065864;28;20397;-67
2022/04/24 08:22:53;;;;;;;6.78;4.00;;;16.40;95.10;;;;;;5058502;28;20037;-68
2022/04/24 08:25:21;;;;;;;3.80;3.00;;;16.60;93.50;;;;;;5037039;28;20040;-67
2022/04/24 08:27:47;;;;;;;4.50;3.10;;;16.80;92.90;;;;;;5067832;28;20044;-66
2022/04/24 08:30:15;;;;;;;7.47;2.72;;;17.00;90.10;;;;;;5060424;28;20043;-67
2022/04/24 08:32:42;;;;;;;5.35;2.63;;;17.10;86.00;;;;;;5070462;28;20075;-67
2022/04/24 08:35:13;;;;;;;4.03;2.80;;;17.20;85.60;;;;;;5037173;28;20044;-67
2022/04/24 08:37:40;;;;;;;4.25;2.80;;;17.40;79.50;;;;;;5046015;28;20048;-65
2022/04/24 08:40:08;;;;;;;4.20;2.40;;;17.50;83.30;;;;;;5045026;28;20044;-66
2022/04/24 08:42:35;;;;;;;6.43;2.63;;;17.70;84.10;;;;;;5054063;28;20529;-66
2022/04/24 08:45:03;;;;;;;4.53;2.10;;;17.90;75.90;;;;;;5054553;28;20033;-66
2022/04/24 08:47:29;;;;;;;6.50;2.50;;;17.90;71.00;;;;;;5053721;28;20028;-67
2022/04/24 08:50:00;;;;;;;7.03;2.67;;;17.80;72.90;;;;;;5055376;28;20512;-65
2022/04/24 08:52:28;;;;;;;5.00;2.08;;;18.00;75.60;;;;;;5050465;28;20044;-67
2022/04/24 08:54:55;;;;;;;4.43;1.95;;;18.10;73.50;;;;;;5053799;28;20044;-65
2022/04/24 08:57:26;;;;;;;2.67;1.80;;;18.30;75.10;;;;;;5053125;28;20041;-66
2022/04/24 08:59:55;;;;;;;2.88;1.92;;;18.50;73.50;;;;;;5065432;28;20044;-68
2022/04/24 09:02:22;;;;;;;4.25;1.95;;;18.60;72.50;;;;;;5062235;28;20123;-66
2022/04/24 09:04:48;;;;;;;4.10;1.90;;;18.70;70.40;;;;;;5063098;28;20036;-68
2022/04/24 09:07:17;;;;;;;3.35;1.80;;;18.90;71.40;;;;;;5073675;28;20053;-65
2022/04/24 09:09:48;;;;;;;5.38;2.13;;;19.30;71.00;;;;;;5059056;28;20084;-68
2022/04/24 09:12:24;;;;;;;3.55;2.33;;;19.50;70.90;;;;;;5057436;28;20047;-69
2022/04/24 09:14:52;;;;;;;2.65;1.98;;;19.70;71.50;;;;;;5059575;28;20413;-67
2022/04/24 09:17:28;;;;;;;7.40;2.38;;;19.90;68.50;;;;;;5064098;28;20494;-67
2022/04/24 09:19:56;;;;;;;4.47;2.20;;;20.10;68.70;;;;;;5036317;28;20045;-66
2022/04/24 09:22:23;;;;;;;3.35;2.40;;;20.30;69.20;;;;;;5050195;28;20033;-67
2022/04/24 09:24:55;;;;;;;3.75;2.28;;;20.30;65.00;;;;;;5055151;28;20041;-66
2022/04/24 09:27:27;;;;;;;8.68;3.28;;;20.30;61.30;;;;;;5034804;28;20052;-67
2022/04/24 09:30:14;;;;;;;3.45;2.47;;;20.10;60.30;;;;;;5051890;28;20065;-68
2022/04/24 09:32:48;;;;;;;3.65;2.20;;;20.10;62.00;;;;;;5053282;28;20127;-67
2022/04/24 09:35:29;;;;;;;4.40;2.65;;;20.10;62.00;;;;;;5052557;28;20068;-68
2022/04/24 09:38:17;;;;;;;4.05;2.25;;;20.10;63.60;;;;;;5069269;28;20115;-69
2022/04/24 09:40:48;;;;;;;3.30;2.10;;;20.40;62.60;;;;;;5060249;28;20106;-67
2022/04/24 09:43:15;;;;;;;5.85;2.33;;;20.60;64.10;;;;;;5057076;28;20025;-68
2022/04/24 09:45:50;;;;;;;6.35;2.80;;;20.90;61.00;;;;;;5052834;28;20474;-67
2022/04/24 09:48:19;;;;;;;4.57;2.60;;;21.00;59.80;;;;;;5055393;28;20043;-68
2022/04/24 09:50:46;;;;;;;5.78;2.40;;;20.70;54.10;;;;;;5054096;28;20386;-66
2022/04/24 09:53:16;;;;;;;3.85;2.47;;;20.40;56.70;;;;;;5032287;28;20045;-67
2022/04/24 09:55:44;;;;;;;3.25;2.25;;;20.40;57.50;;;;;;5052729;28;20495;-68
2022/04/24 09:58:12;;;;;;;3.58;2.20;;;20.40;59.00;;;;;;5053044;28;20048;-68
2022/04/24 10:00:39;;;;;;;2.80;2.03;;;20.60;60.10;;;;;;5051305;28;20037;-65
2022/04/24 10:03:05;;;;;;;2.63;2.03;;;20.80;60.60;;;;;;5052059;28;20053;-66
2022/04/24 10:05:31;;;;;;;3.05;1.92;;;20.90;53.60;;;;;;5052683;28;20159;-66
2022/04/24 10:07:59;;;;;;;7.93;2.60;;;20.80;57.70;;;;;;5052444;28;20116;-66
2022/04/24 10:10:24;;;;;;;4.35;1.83;;;20.90;57.80;;;;;;5050736;28;20056;-65
2022/04/24 10:12:51;;;;;;;3.40;2.20;;;21.10;56.60;;;;;;5052452;28;20040;-65
2022/04/24 10:15:19;;;;;;;5.00;2.03;;;21.20;53.50;;;;;;5054064;28;20037;-66
2022/04/24 10:18:06;;;;;;;8.82;2.28;;;21.20;54.20;;;;;;5051936;28;20033;-65
2022/04/24 10:20:41;;;;;;;5.30;2.25;;;21.40;57.70;;;;;;5051714;28;20068;-65
2022/04/24 10:23:08;;;;;;;6.20;2.17;;;21.50;56.30;;;;;;5050019;28;20069;-65
2022/04/24 10:25:40;;;;;;;6.50;2.55;;;21.60;55.70;;;;;;5035876;28;20055;-66
2022/04/24 10:28:35;;;;;;;4.13;2.10;;;21.60;54.70;;;;;;5051826;28;20045;-66
2022/04/24 10:31:03;;;;;;;10.43;2.47;;;21.70;54.10;;;;;;5049702;28;20076;-66
2022/04/24 10:33:32;;;;;;;2.97;1.77;;;21.70;54.00;;;;;;5053105;28;20559;-67
2022/04/24 10:36:03;;;;;;;8.63;2.30;;;21.80;55.30;;;;;;5054734;28;20396;-65
2022/04/24 10:38:46;;;;;;;3.22;2.03;;;22.00;55.40;;;;;;5052155;28;20049;-66
2022/04/24 10:41:17;;;;;;;3.03;1.85;;;22.10;52.50;;;;;;5053138;28;20091;-68
2022/04/24 10:43:51;;;;;;;4.70;2.50;;;22.00;51.20;;;;;;5054965;28;20044;-67
2022/04/24 10:46:30;;;;;;;7.72;2.63;;;22.10;55.30;;;;;;5058719;28;20134;-67
2022/04/24 10:49:11;;;;;;;4.38;2.28;;;22.40;56.70;;;;;;5051767;28;20040;-67
2022/04/24 10:51:39;;;;;;;3.92;2.65;;;22.30;54.10;;;;;;5047741;28;20144;-67
2022/04/24 10:54:14;;;;;;;13.02;3.97;;;21.70;54.00;;;;;;5058392;28;20044;-65
2022/04/24 10:56:43;;;;;;;4.63;3.08;;;21.20;56.30;;;;;;5054543;28;20052;-68
2022/04/24 10:59:15;;;;;;;4.40;2.72;;;21.00;57.30;;;;;;5052386;28;20040;-65
2022/04/24 11:01:50;;;;;;;6.97;2.38;;;20.90;57.50;;;;;;5050951;28;20040;-67
2022/04/24 11:04:22;;;;;;;2.95;1.80;;;20.90;57.10;;;;;;5035309;28;20064;-65
2022/04/24 11:06:52;;;;;;;5.07;2.08;;;21.00;53.10;;;;;;5054373;28;20045;-67
2022/04/24 11:09:19;;;;;;;3.17;2.00;;;20.80;54.20;;;;;;5051411;28;20036;-67
2022/04/24 11:11:56;;;;;;;3.97;2.22;;;20.50;53.00;;;;;;5050072;28;20390;-66
2022/04/24 11:14:25;;;;;;;3.90;2.30;;;20.60;52.00;;;;;;5051462;28;20071;-65
2022/04/24 11:16:54;;;;;;;5.45;2.50;;;20.90;53.80;;;;;;5038575;28;20047;-65
2022/04/24 11:19:31;;;;;;;3.13;2.30;;;21.10;53.20;;;;;;5052960;28;20043;-65
2022/04/24 11:22:09;;;;;;;4.07;2.35;;;21.30;55.80;;;;;;5047748;28;20040;-65
2022/04/24 11:24:38;;;;;;;5.32;1.80;;;21.30;55.10;;;;;;5056390;28;20037;-66
2022/04/24 11:27:09;;;;;;;4.28;1.75;;;21.30;54.40;;;;;;5062608;28;20061;-65
2022/04/24 11:29:35;;;;;;;2.17;1.45;;;20.80;53.30;;;;;;5041126;28;20142;-65
2022/04/24 11:32:02;;;;;;;4.30;2.10;;;20.20;53.30;;;;;;5055545;28;20116;-65
2022/04/24 11:34:29;;;;;;;4.65;2.08;;;20.10;52.20;;;;;;5053922;28;20117;-67
2022/04/24 11:36:59;;;;;;;6.13;2.33;;;20.30;55.00;;;;;;5059558;28;20036;-67
2022/04/24 11:39:26;;;;;;;4.15;2.20;;;20.20;56.00;;;;;;5053099;28;20037;-67
2022/04/24 11:42:03;;;;;;;3.83;1.90;;;19.90;56.30;;;;;;5054825;28;20068;-66
2022/04/24 11:50:14;;;;;;;3.75;1.92;;;19.70;55.30;;;;;;5068177;28;20413;-65
2022/04/24 11:52:50;;;;;;;4.20;2.00;;;19.30;55.80;;;;;;5052410;28;20045;-65
2022/04/24 11:58:12;;;;;;;3.78;1.80;;;19.80;57.20;;;;;;5064399;28;20055;-66
2022/04/24 12:00:38;;;;;;;4.60;2.03;;;19.90;54.80;;;;;;5062563;28;20056;-65
2022/04/24 12:03:08;;;;;;;7.10;2.22;;;19.90;54.30;;;;;;5075650;28;20477;-67
2022/04/24 12:05:34;;;;;;;8.80;2.47;;;20.00;55.40;;;;;;5058139;28;20037;-66
2022/04/24 12:08:01;;;;;;;4.22;1.92;;;19.70;56.80;;;;;;5060862;28;20037;-65
2022/04/24 12:10:27;;;;;;;3.70;1.83;;;19.60;55.20;;;;;;5067427;28;20557;-66
2022/04/24 12:12:54;;;;;;;4.78;1.95;;;19.90;56.20;;;;;;5055505;28;20048;-65
2022/04/24 12:15:24;;;;;;;7.55;3.05;;;20.00;55.20;;;;;;5065718;28;20885;-65
2022/04/24 12:17:54;;;;;;;4.50;1.85;;;20.10;56.40;;;;;;5062675;28;20040;-66
2022/04/24 12:20:22;;;;;;;2.63;1.65;;;20.50;56.10;;;;;;5054434;28;20037;-65
2022/04/24 12:22:48;;;;;;;3.88;1.85;;;20.60;54.40;;;;;;5052539;28;20094;-65
2022/04/24 12:25:17;;;;;;;4.28;2.30;;;20.50;54.90;;;;;;5066373;28;20137;-66
2022/04/24 12:27:54;;;;;;;6.28;3.17;;;20.50;55.50;;;;;;5045751;28;20040;-66
2022/04/24 12:30:20;;;;;;;6.88;3.55;;;20.70;59.30;;;;;;5057698;28;20035;-64
2022/04/24 12:32:46;;;;;;;5.82;3.15;;;20.70;59.80;;;;;;5054625;28;20045;-66
2022/04/24 12:35:28;;;;;;;4.82;3.40;;;20.20;59.40;;;;;;5062947;28;20087;-66
2022/04/24 12:37:55;;;;;;;8.82;4.43;;;19.60;63.00;;;;;;5065584;28;20033;-66
2022/04/24 12:40:21;;;;;;;6.30;3.60;;;19.60;64.50;;;;;;5057011;28;20052;-66
2022/04/24 12:42:54;;;;;;;5.13;3.30;;;19.50;62.90;;;;;;5058298;28;20033;-66
2022/04/24 12:45:24;;;;;;;6.63;2.67;;;19.30;63.40;;;;;;5058943;28;20037;-66
2022/04/24 12:47:50;;;;;;;9.05;4.22;;;19.20;63.10;;;;;;5045662;28;20041;-66
2022/04/24 12:50:17;;;;;;;8.60;4.03;;;18.80;61.20;;;;;;5056056;28;20071;-65
2022/04/24 12:52:43;;;;;;;6.35;4.22;;;18.50;62.70;;;;;;5071256;28;20048;-65
2022/04/24 12:55:10;;;;;;;8.02;4.63;;;18.30;64.30;;;;;;5070172;28;20075;-66
2022/04/24 12:57:37;;;;;;;9.73;3.75;;;17.80;64.50;;;;;;5066508;28;20724;-66
2022/04/24 13:00:07;;;;;;;9.55;4.05;;;17.30;65.00;;;;;;5073067;28;20040;-66